Time;durP1;ratioP1;P1;durP2;ratioP2;P2;SDS_P1;SDS_P2;PMS_P1;PMS_P2;Temp;Humidity;BMP_temperature;BMP_pressure;BME280_temperature;BME280_humidity;BME280_pressure;Samples;Min_cycle;Max_cycle;Signal;HPM_P1;HPM_P2
2022/09/09 00:00:57;;;;;;;;;;;;;;;15.14;69.85;97695.34;5045875;28;19925;-87
2022/09/09 00:03:26;;;;;;;;;;;;;;;15.13;69.76;97694.53;5033534;28;20419;-87
2022/09/09 00:05:58;;;;;;;;;;;;;;;15.15;69.58;97692.25;5055235;28;20375;-86
2022/09/09 00:08:30;;;;;;;;;;;;;;;15.15;69.58;97692.25;5050227;28;20039;-87
2022/09/09 00:10:59;;;;;;;;;;;;;;;15.15;69.50;97692.25;5040813;28;19924;-87
2022/09/09 00:13:33;;;;;;;;;;;;;;;15.07;69.41;97690.41;5033335;28;19947;-87
2022/09/09 00:16:24;;;;;;;;;;;;;;;14.94;69.91;97683.41;5032365;28;20409;-85
2022/09/09 00:18:57;;;;;;;;;;;;;;;14.90;70.01;97680.56;5030716;28;19956;-85
2022/09/09 00:21:47;;;;;;;;;;;;;;;14.80;70.50;97680.22;5031169;28;20280;-85
2022/09/09 00:24:18;;;;;;;;;;;;;;;14.80;70.62;97674.75;5015298;28;19992;-86
2022/09/09 00:26:52;;;;;;;;;;;;;;;14.77;70.57;97678.19;5032230;28;20032;-86
2022/09/09 00:29:42;;;;;;;;;;;;;;;14.74;70.76;97674.19;5036713;28;19924;-85
2022/09/09 00:32:13;;;;;;;;;;;;;;;14.84;70.58;97681.13;5033224;28;20334;-86
2022/09/09 00:34:44;;;;;;;;;;;;;;;14.82;70.40;97677.97;5030043;28;19933;-84
2022/09/09 00:37:13;;;;;;;;;;;;;;;14.83;70.47;97668.63;5028140;28;19932;-87
2022/09/09 00:39:44;;;;;;;;;;;;;;;14.80;70.35;97669.28;5021013;28;19993;-84
2022/09/09 00:42:14;;;;;;;;;;;;;;;14.70;70.87;97676.06;5026332;28;19925;-86
2022/09/09 00:44:53;;;;;;;;;;;;;;;14.70;71.19;97675.22;5034683;28;19940;-85
2022/09/09 00:47:46;;;;;;;;;;;;;;;14.76;71.14;97668.41;5036488;28;19995;-86
2022/09/09 00:50:32;;;;;;;;;;;;;;;14.74;70.89;97667.94;5040956;28;19925;-85
2022/09/09 00:53:31;;;;;;;;;;;;;;;14.75;70.75;97672.25;5040887;28;20073;-86
2022/09/09 00:56:04;;;;;;;;;;;;;;;14.73;70.70;97674.56;5044921;28;19936;-84
2022/09/09 00:58:32;;;;;;;;;;;;;;;14.70;70.82;97667.84;5032865;28;19929;-86
2022/09/09 01:01:02;;;;;;;;;;;;;;;14.63;71.63;97675.81;5037686;28;20319;-87
2022/09/09 01:03:33;;;;;;;;;;;;;;;14.60;71.67;97677.31;5047653;28;19925;-86
2022/09/09 01:06:13;;;;;;;;;;;;;;;14.55;71.89;97671.28;5035922;28;19979;-85
2022/09/09 01:08:49;;;;;;;;;;;;;;;14.57;72.00;97672.50;5037269;28;20208;-86
2022/09/09 01:11:25;;;;;;;;;;;;;;;14.54;72.19;97666.91;5035280;28;19960;-87
2022/09/09 01:13:58;;;;;;;;;;;;;;;14.53;72.17;97679.78;5020639;28;19925;-84
2022/09/09 01:16:29;;;;;;;;;;;;;;;14.54;72.34;97673.22;5027417;28;19926;-87
2022/09/09 01:19:00;;;;;;;;;;;;;;;14.53;72.27;97676.28;5024074;28;19925;-87
2022/09/09 01:21:34;;;;;;;;;;;;;;;14.51;72.49;97678.56;5008866;28;20345;-87
2022/09/09 01:24:09;;;;;;;;;;;;;;;14.51;72.73;97668.41;5022224;28;20283;-85
2022/09/09 01:26:51;;;;;;;;;;;;;;;14.56;72.67;97681.84;5021001;28;19929;-85
2022/09/09 01:29:25;;;;;;;;;;;;;;;14.56;72.64;97673.66;5034711;28;19967;-85
2022/09/09 01:31:56;;;;;;;;;;;;;;;14.56;72.65;97676.38;4996568;28;19971;-86
2022/09/09 01:34:26;;;;;;;;;;;;;;;14.61;72.61;97681.63;5032776;28;20019;-85
2022/09/09 01:36:57;;;;;;;;;;;;;;;14.63;72.58;97679.34;5025043;28;19931;-86
2022/09/09 01:39:28;;;;;;;;;;;;;;;14.66;72.18;97680.59;5030261;28;19928;-86
2022/09/09 01:42:08;;;;;;;;;;;;;;;14.64;72.29;97686.38;5028999;28;19929;-85
2022/09/09 01:44:37;;;;;;;;;;;;;;;14.62;72.13;97677.75;5030513;28;19925;-86
2022/09/09 01:47:06;;;;;;;;;;;;;;;14.55;72.46;97677.53;5029358;28;19957;-87
2022/09/09 01:49:49;;;;;;;;;;;;;;;14.59;72.36;97680.34;5053915;28;19935;-86
2022/09/09 01:52:23;;;;;;;;;;;;;;;14.61;72.35;97678.09;5038310;28;19924;-87
2022/09/09 01:54:51;;;;;;;;;;;;;;;14.70;72.03;97670.56;5016470;28;19925;-87
2022/09/09 01:57:25;;;;;;;;;;;;;;;14.70;71.92;97669.75;5030034;28;19932;-86
2022/09/09 01:59:58;;;;;;;;;;;;;;;14.75;71.76;97675.00;5037365;28;19975;-86
2022/09/09 02:02:27;;;;;;;;;;;;;;;14.78;71.43;97675.09;5014291;28;19971;-87
2022/09/09 02:05:10;;;;;;;;;;;;;;;14.75;71.66;97664.84;5018178;28;19924;-87
2022/09/09 02:07:39;;;;;;;;;;;;;;;14.73;71.63;97669.88;5035350;28;19979;-87
2022/09/09 02:10:17;;;;;;;;;;;;;;;14.68;71.65;97662.69;5050559;28;19975;-88
2022/09/09 02:12:57;;;;;;;;;;;;;;;14.70;71.81;97670.56;5036831;28;19940;-85
2022/09/09 02:15:31;;;;;;;;;;;;;;;14.72;71.84;97662.03;5031619;28;19931;-87
2022/09/09 02:18:10;;;;;;;;;;;;;;;14.74;71.72;97667.94;5034817;28;19925;-88
2022/09/09 02:21:13;;;;;;;;;;;;;;;14.82;71.30;97667.03;5040470;28;19940;-88
2022/09/09 02:23:52;;;;;;;;;;;;;;;14.87;71.13;97661.31;5043254;28;19925;-88
2022/09/09 02:26:21;;;;;;;;;;;;;;;14.82;71.08;97658.81;5041176;28;20470;-88
2022/09/09 02:31:57;;;;;;;;;;;;;;;14.66;71.85;97654.06;5040124;28;19932;-85
2022/09/09 02:34:37;;;;;;;;;;;;;;;14.66;71.84;97659.53;5037352;28;19929;-88
2022/09/09 02:37:16;;;;;;;;;;;;;;;14.61;72.20;97657.03;5038651;28;19967;-90
2022/09/09 02:39:48;;;;;;;;;;;;;;;14.64;72.13;97658.25;5041948;28;19996;-82
2022/09/09 02:42:47;;;;;;;;;;;;;;;14.62;72.19;97661.34;5049735;28;20284;-87
2022/09/09 02:45:29;;;;;;;;;;;;;;;14.66;72.06;97659.53;5037106;28;20326;-85
2022/09/09 02:47:59;;;;;;;;;;;;;;;14.72;72.02;97664.75;5019125;28;19925;-85
2022/09/09 02:50:30;;;;;;;;;;;;;;;14.70;71.99;97658.81;5016212;28;19972;-86
2022/09/09 02:53:02;;;;;;;;;;;;;;;14.68;71.87;97662.69;5015738;28;20000;-86
2022/09/09 02:55:36;;;;;;;;;;;;;;;14.73;71.73;97658.94;5011493;28;19933;-84
2022/09/09 02:58:11;;;;;;;;;;;;;;;14.74;71.76;97665.19;4993476;28;20324;-86
2022/09/09 03:01:08;;;;;;;;;;;;;;;14.73;71.87;97664.41;5011116;28;19925;-85
2022/09/09 03:03:36;;;;;;;;;;;;;;;14.77;71.60;97659.06;5004346;28;19926;-86
2022/09/09 03:06:11;;;;;;;;;;;;;;;14.68;71.81;97662.69;5001923;28;19931;-85
2022/09/09 03:08:40;;;;;;;;;;;;;;;14.60;72.17;97663.63;5020245;28;20372;-84
2022/09/09 03:11:13;;;;;;;;;;;;;;;14.66;72.14;97654.06;5017810;28;19925;-86
2022/09/09 03:13:43;;;;;;;;;;;;;;;14.66;72.14;97659.53;5037952;28;20367;-85
2022/09/09 03:16:14;;;;;;;;;;;;;;;14.64;72.37;97661.00;5019084;28;19925;-84
2022/09/09 03:18:47;;;;;;;;;;;;;;;14.60;72.46;97658.16;5020188;28;19925;-86
2022/09/09 03:21:15;;;;;;;;;;;;;;;14.61;72.46;97657.03;5007708;28;19932;-87
2022/09/09 03:23:59;;;;;;;;;;;;;;;14.74;72.14;97659.72;5035515;28;19925;-86
2022/09/09 03:26:30;;;;;;;;;;;;;;;14.69;72.09;97660.75;5032602;28;19960;-87
2022/09/09 03:31:56;;;;;;;;;;;;;;;14.71;72.05;97660.44;5021153;28;19948;-87
2022/09/09 03:34:30;;;;;;;;;;;;;;;14.72;71.83;97654.63;5010679;28;19929;-86
2022/09/09 03:36:59;;;;;;;;;;;;;;;14.71;72.13;97654.97;5018717;28;19925;-86
2022/09/09 03:39:28;;;;;;;;;;;;;;;14.70;72.21;97653.34;5011033;28;19926;-85
2022/09/09 03:42:03;;;;;;;;;;;;;;;14.70;72.32;97647.88;5034365;28;20398;-87
2022/09/09 03:45:00;;;;;;;;;;;;;;;14.68;72.21;97646.28;5034020;28;19965;-86
2022/09/09 03:47:32;;;;;;;;;;;;;;;14.63;72.49;97648.47;5037736;28;19925;-84
2022/09/09 03:50:08;;;;;;;;;;;;;;;14.57;72.63;97656.09;5046324;28;20272;-85
2022/09/09 03:52:37;;;;;;;;;;;;;;;14.56;72.96;97657.25;5037269;28;19924;-86
2022/09/09 03:55:10;;;;;;;;;;;;;;;14.62;72.93;97653.13;5034557;28;19931;-87
2022/09/09 03:57:38;;;;;;;;;;;;;;;14.70;72.44;97647.88;5035971;28;19935;-83
2022/09/09 04:00:10;;;;;;;;;;;;;;;14.73;72.57;97649.94;5048908;28;19960;-86
2022/09/09 04:02:53;;;;;;;;;;;;;;;14.77;72.50;97643.44;5031900;28;20368;-85
2022/09/09 04:05:22;;;;;;;;;;;;;;;14.81;72.31;97644.34;5036146;28;20407;-85
2022/09/09 04:07:51;;;;;;;;;;;;;;;14.83;72.23;97657.66;5033806;28;19967;-85
2022/09/09 04:10:19;;;;;;;;;;;;;;;14.78;72.26;97644.22;5049262;28;19936;-85
2022/09/09 04:12:47;;;;;;;;;;;;;;;14.76;72.67;97643.78;5032961;28;19983;-86
2022/09/09 04:15:18;;;;;;;;;;;;;;;14.74;72.64;97648.78;5030143;28;19925;-87
2022/09/09 04:17:49;;;;;;;;;;;;;;;14.72;72.80;97645.63;5018294;28;20001;-86
2022/09/09 04:20:19;;;;;;;;;;;;;;;14.76;72.66;97647.31;5034235;28;19960;-87
2022/09/09 04:22:47;;;;;;;;;;;;;;;14.76;72.61;97646.53;5051801;28;19952;-89
2022/09/09 04:25:16;;;;;;;;;;;;;;;14.72;72.85;97642.88;5051175;28;19925;-87
2022/09/09 04:27:44;;;;;;;;;;;;;;;14.70;73.26;97648.69;5036545;28;20129;-86
2022/09/09 04:30:13;;;;;;;;;;;;;;;14.68;73.23;97648.22;5035299;28;19925;-88
2022/09/09 04:33:08;;;;;;;;;;;;;;;14.66;73.16;97654.06;5032567;28;19964;-88
2022/09/09 04:35:38;;;;;;;;;;;;;;;14.67;73.13;97650.19;5048633;28;19935;-87
2022/09/09 04:38:07;;;;;;;;;;;;;;;14.68;73.22;97650.97;5033864;28;19925;-87
2022/09/09 04:40:35;;;;;;;;;;;;;;;14.67;73.22;97657.59;5045995;28;19935;-84
2022/09/09 04:43:04;;;;;;;;;;;;;;;14.64;73.17;97650.06;5026359;28;19929;-85
2022/09/09 04:45:33;;;;;;;;;;;;;;;14.64;73.30;97650.84;5021550;28;19939;-86
2022/09/09 04:48:02;;;;;;;;;;;;;;;14.65;73.27;97654.41;5032913;28;19924;-88
2022/09/09 04:50:31;;;;;;;;;;;;;;;14.67;73.01;97644.72;5024663;28;20360;-87
2022/09/09 04:53:02;;;;;;;;;;;;;;;14.65;73.00;97651.69;5026211;28;20269;-86
2022/09/09 04:55:31;;;;;;;;;;;;;;;14.63;73.22;97643.00;5040073;28;19932;-87
2022/09/09 04:57:59;;;;;;;;;;;;;;;14.65;73.32;97648.94;5028654;28;19931;-85
2022/09/09 05:00:28;;;;;;;;;;;;;;;14.66;73.27;97653.25;5050197;28;19925;-87
2022/09/09 05:02:56;;;;;;;;;;;;;;;14.67;73.43;97655.63;5025124;28;19933;-85
2022/09/09 05:05:56;;;;;;;;;;;;;;;14.68;73.10;97662.69;5048549;28;19929;-88
2022/09/09 05:08:30;;;;;;;;;;;;;;;14.72;73.08;97664.75;5043828;28;20011;-88
2022/09/09 05:11:00;;;;;;;;;;;;;;;14.76;72.97;97662.94;5029709;28;19947;-88
2022/09/09 05:13:31;;;;;;;;;;;;;;;14.77;72.94;97668.06;5043298;28;20374;-88
2022/09/09 05:16:00;;;;;;;;;;;;;;;14.82;72.98;97676.03;5044978;28;19925;-83
2022/09/09 05:18:30;;;;;;;;;;;;;;;14.81;73.16;97677.16;5041197;28;19925;-87
2022/09/09 05:21:01;;;;;;;;;;;;;;;14.83;73.09;97676.81;5033322;28;19964;-88
2022/09/09 05:23:32;;;;;;;;;;;;;;;14.87;72.84;97675.00;5041946;28;19996;-88
2022/09/09 05:26:01;;;;;;;;;;;;;;;14.86;72.71;97678.84;5023916;28;20463;-81
2022/09/09 05:28:31;;;;;;;;;;;;;;;14.90;72.36;97691.50;5045610;28;19991;-83
2022/09/09 05:31:03;;;;;;;;;;;;;;;14.95;72.63;97687.72;5050206;28;19925;-81
2022/09/09 05:33:34;;;;;;;;;;;;;;;14.94;71.25;97686.13;5045191;28;19925;-86
2022/09/09 05:36:06;;;;;;;;;;;;;;;14.96;71.43;97685.78;5012116;28;19933;-82
2022/09/09 05:38:37;;;;;;;;;;;;;;;15.00;71.02;97684.75;5054530;28;19925;-80
2022/09/09 05:41:05;;;;;;;;;;;;;;;15.00;71.20;97686.69;5030402;28;19975;-79
2022/09/09 05:43:34;;;;;;;;;;;;;;;15.03;70.83;97688.75;5027582;28;20012;-79
2022/09/09 05:46:07;;;;;;;;;;;;;;;15.07;70.79;97693.16;5045331;28;19940;-80
2022/09/09 05:48:37;;;;;;;;;;;;;;;15.09;70.50;97693.63;5028525;28;19929;-81
2022/09/09 05:51:06;;;;;;;;;;;;;;;15.06;70.05;97697.03;5012956;28;19925;-88
2022/09/09 05:53:34;;;;;;;;;;;;;;;15.06;70.63;97697.03;5009574;28;19933;-81
2022/09/09 05:56:27;;;;;;;;;;;;;;;15.07;70.34;97697.84;5006868;28;19929;-80
2022/09/09 05:58:59;;;;;;;;;;;;;;;14.98;69.83;97692.53;5007388;28;19937;-78
2022/09/09 06:01:28;;;;;;;;;;;;;;;14.98;70.03;97692.53;5012083;28;19925;-88
2022/09/09 06:03:57;;;;;;;;;;;;;;;14.94;70.51;97692.41;5006112;28;19931;-88
2022/09/09 06:06:26;;;;;;;;;;;;;;;14.95;70.52;97693.19;5009045;28;20444;-88
2022/09/09 06:08:58;;;;;;;;;;;;;;;14.91;70.58;97698.56;5006986;28;19925;-88
2022/09/09 06:11:31;;;;;;;;;;;;;;;14.94;70.47;97697.88;5011584;28;19925;-86
2022/09/09 06:14:04;;;;;;;;;;;;;;;14.99;71.08;97696.84;5029145;28;19968;-85
2022/09/09 06:16:37;;;;;;;;;;;;;;;15.05;70.68;97695.44;5002706;28;20066;-88
2022/09/09 06:19:12;;;;;;;;;;;;;;;15.12;70.69;97692.13;5024456;28;19929;-90
2022/09/09 06:21:44;;;;;;;;;;;;;;;15.17;70.58;97689.94;5024798;28;19925;-89
2022/09/09 06:24:16;;;;;;;;;;;;;;;15.22;70.35;97686.16;5016546;28;20304;-88
2022/09/09 06:26:45;;;;;;;;;;;;;;;15.25;70.25;97687.44;5024775;28;19952;-88
2022/09/09 06:29:20;;;;;;;;;;;;;;;15.28;70.08;97705.88;5021576;28;19994;-89
2022/09/09 06:31:48;;;;;;;;;;;;;;;15.28;69.57;97698.47;5013628;28;19925;-89
2022/09/09 06:34:46;;;;;;;;;;;;;;;15.34;69.59;97696.28;5014921;28;19925;-88
2022/09/09 06:37:15;;;;;;;;;;;;;;;15.42;69.69;97701.63;5017803;28;19948;-89
2022/09/09 06:39:48;;;;;;;;;;;;;;;15.46;69.29;97701.72;5021803;28;19926;-87
2022/09/09 06:42:16;;;;;;;;;;;;;;;15.53;69.82;97698.38;5037350;28;19924;-88
2022/09/09 06:45:18;;;;;;;;;;;;;;;15.67;69.03;97707.03;5006703;28;19925;-87
2022/09/09 06:47:55;;;;;;;;;;;;;;;15.79;68.54;97701.50;5038128;28;19931;-86
2022/09/09 06:50:26;;;;;;;;;;;;;;;15.84;68.26;97709.44;5039582;28;19960;-88
2022/09/09 06:52:54;;;;;;;;;;;;;;;16.00;68.67;97708.69;5043742;28;19929;-88
2022/09/09 06:55:23;;;;;;;;;;;;;;;16.06;67.76;97712.75;5050106;28;19974;-81
2022/09/09 06:57:52;;;;;;;;;;;;;;;16.16;67.00;97706.75;5040928;28;19925;-87
2022/09/09 07:00:24;;;;;;;;;;;;;;;16.26;66.39;97716.41;5049220;28;20458;-86
2022/09/09 07:03:00;;;;;;;;;;;;;;;16.32;65.89;97721.25;5037637;28;19991;-86
2022/09/09 07:05:29;;;;;;;;;;;;;;;16.48;66.08;97724.81;5048640;28;19925;-87
2022/09/09 07:07:58;;;;;;;;;;;;;;;16.52;64.36;97722.16;5036757;28;19932;-86
2022/09/09 07:10:26;;;;;;;;;;;;;;;16.67;64.92;97726.00;5038905;28;19971;-87
2022/09/09 07:12:56;;;;;;;;;;;;;;;16.66;63.42;97727.97;5031822;28;19928;-88
2022/09/09 07:15:27;;;;;;;;;;;;;;;16.66;63.99;97729.91;5038805;28;20370;-87
2022/09/09 07:17:55;;;;;;;;;;;;;;;16.62;63.19;97729.03;5027950;28;19935;-86
2022/09/09 07:20:23;;;;;;;;;;;;;;;16.44;63.54;97734.88;5034121;28;20359;-84
2022/09/09 07:23:02;;;;;;;;;;;;;;;16.42;64.57;97734.44;5034240;28;19972;-87
2022/09/09 07:25:31;;;;;;;;;;;;;;;16.37;63.81;97737.44;5044615;28;19929;-87
2022/09/09 07:28:02;;;;;;;;;;;;;;;16.39;64.71;97737.09;5047487;28;19976;-87
2022/09/09 07:30:32;;;;;;;;;;;;;;;16.37;64.12;97734.72;5040352;28;20011;-87
2022/09/09 07:33:02;;;;;;;;;;;;;;;16.39;64.49;97740.63;5031108;28;19924;-84
2022/09/09 07:35:30;;;;;;;;;;;;;;;16.43;64.36;97738.78;5031199;28;19925;-87
2022/09/09 07:37:59;;;;;;;;;;;;;;;16.52;64.82;97735.06;5039821;28;19995;-87
2022/09/09 07:40:26;;;;;;;;;;;;;;;16.53;64.36;97734.72;5019595;28;20325;-86
2022/09/09 07:42:54;;;;;;;;;;;;;;;16.62;63.94;97745.47;5036083;28;20276;-86
2022/09/09 07:45:22;;;;;;;;;;;;;;;16.70;63.51;97737.06;5026011;28;19925;-86
2022/09/09 07:47:52;;;;;;;;;;;;;;;16.70;62.52;97739.81;5032103;28;19932;-85
2022/09/09 07:50:21;;;;;;;;;;;;;;;16.76;63.51;97740.38;5029760;28;20355;-83
2022/09/09 07:52:52;;;;;;;;;;;;;;;16.87;63.64;97735.13;5033397;28;20363;-85
2022/09/09 07:55:21;;;;;;;;;;;;;;;17.06;63.01;97743.44;5047277;28;19975;-84
2022/09/09 07:57:49;;;;;;;;;;;;;;;17.22;61.54;97740.66;5032351;28;19929;-84
2022/09/09 08:00:19;;;;;;;;;;;;;;;17.28;61.36;97744.69;5025864;28;20405;-83
2022/09/09 08:02:54;;;;;;;;;;;;;;;17.31;61.73;97748.66;5031233;28;19925;-85
2022/09/09 08:05:23;;;;;;;;;;;;;;;17.35;61.76;97744.03;5036495;28;19925;-84
2022/09/09 08:07:51;;;;;;;;;;;;;;;17.53;61.51;97742.50;5026880;28;19955;-85
2022/09/09 08:10:20;;;;;;;;;;;;;;;17.68;60.99;97747.09;5018880;28;19924;-84
2022/09/09 08:12:49;;;;;;;;;;;;;;;17.83;61.39;97739.16;5032635;28;19931;-84
2022/09/09 08:15:37;;;;;;;;;;;;;;;18.03;60.94;97738.78;5032736;28;19928;-85
2022/09/09 08:18:10;;;;;;;;;;;;;;;17.99;58.89;97735.16;5034704;28;19987;-87
2022/09/09 08:20:38;;;;;;;;;;;;;;;17.98;58.71;97738.28;5034000;28;19956;-90
2022/09/09 08:23:07;;;;;;;;;;;;;;;18.12;58.91;97735.03;5027395;28;19967;-87
2022/09/09 08:25:36;;;;;;;;;;;;;;;18.22;58.24;97740.72;5058083;28;19931;-88
2022/09/09 08:28:04;;;;;;;;;;;;;;;18.32;57.94;97731.84;5043662;28;19925;-89
2022/09/09 08:30:34;;;;;;;;;;;;;;;18.28;56.96;97739.25;5032618;28;19979;-89
2022/09/09 08:33:05;;;;;;;;;;;;;;;18.28;57.09;97736.50;5037427;28;19948;-88
2022/09/09 08:35:35;;;;;;;;;;;;;;;18.38;57.42;97740.59;5034607;28;19924;-90
2022/09/09 08:38:14;;;;;;;;;;;;;;;18.48;56.47;97736.41;5040382;28;20383;-87
2022/09/09 08:43:37;;;;;;;;;;;;;;;18.67;56.75;97738.31;4436416;22;19932;-74
2022/09/09 08:46:07;;;;;;;;;;;;;;;18.79;55.85;97744.44;5049325;28;19929;-74
2022/09/09 08:48:41;;;;;;;;;;;;;;;18.93;55.31;97749.38;5029126;28;19929;-73
2022/09/09 08:51:10;;;;;;;;;;;;;;;19.04;55.21;97749.53;5049014;28;19931;-74
2022/09/09 08:53:42;;;;;;;;;;;;;;;19.18;55.32;97746.19;5028709;28;20379;-74
2022/09/09 08:56:12;;;;;;;;;;;;;;;19.11;54.93;97744.13;5049188;28;19933;-74
2022/09/09 08:58:48;;;;;;;;;;;;;;;19.01;56.11;97750.25;5030568;28;19932;-73
2022/09/09 09:01:43;;;;;;;;;;;;;;;19.00;57.58;97751.44;5048988;28;19925;-73
2022/09/09 09:04:25;;;;;;;;;;;;;;;19.17;55.39;97744.59;5017050;28;19925;-73
2022/09/09 09:06:59;;;;;;;;;;;;;;;19.26;55.00;97743.16;5048571;28;20356;-73
2022/09/09 09:09:30;;;;;;;;;;;;;;;19.28;55.30;97746.34;5031682;28;19975;-73
2022/09/09 09:12:00;;;;;;;;;;;;;;;19.50;55.76;97743.88;5044934;28;20297;-74
2022/09/09 09:14:34;;;;;;;;;;;;;;;19.76;54.91;97746.59;5032844;28;19970;-74
2022/09/09 09:17:12;;;;;;;;;;;;;;;19.71;53.65;97744.19;5017422;28;19956;-73
2022/09/09 09:19:41;;;;;;;;;;;;;;;19.61;53.78;97740.13;5029869;28;19986;-73
2022/09/09 09:22:17;;;;;;;;;;;;;;;19.57;54.43;97743.97;5030602;28;19978;-73
2022/09/09 09:24:46;;;;;;;;;;;;;;;19.60;54.64;97737.72;5046213;28;19967;-73
2022/09/09 09:27:15;;;;;;;;;;;;;;;19.59;52.63;97725.09;5035035;28;20484;-73
2022/09/09 09:29:50;;;;;;;;;;;;;;;19.58;52.22;97731.75;5029423;28;20018;-74
2022/09/09 09:32:44;;;;;;;;;;;;;;;19.84;52.15;97726.19;5029095;28;20006;-73
2022/09/09 09:35:24;;;;;;;;;;;;;;;19.99;51.07;97731.88;5028985;28;19975;-73
2022/09/09 09:37:57;;;;;;;;;;;;;;;20.19;49.80;97724.19;5049086;28;19983;-73
2022/09/09 09:41:12;;;;;;;;;;;;;;;20.23;48.82;97720.28;5050304;28;19925;-73
2022/09/09 09:43:42;;;;;;;;;;;;;;;20.22;48.92;97721.47;5028490;28;19924;-74
2022/09/09 09:46:19;;;;;;;;;;;;;;;20.44;49.66;97721.66;5044763;28;20012;-73
2022/09/09 09:48:57;;;;;;;;;;;;;;;20.63;50.13;97710.44;5030456;28;19932;-74
2022/09/09 09:51:25;;;;;;;;;;;;;;;20.75;48.98;97709.34;5032454;28;19987;-73
2022/09/09 09:53:56;;;;;;;;;;;;;;;20.85;49.47;97714.94;5026057;28;19990;-73
2022/09/09 09:56:28;;;;;;;;;;;;;;;20.93;48.67;97719.34;5030977;28;20357;-74
2022/09/09 09:58:56;;;;;;;;;;;;;;;21.03;49.05;97719.78;5015796;28;19956;-73
2022/09/09 10:01:33;;;;;;;;;;;;;;;21.12;49.28;97720.25;5048162;28;19925;-73
2022/09/09 10:04:15;;;;;;;;;;;;;;;20.93;48.27;97713.81;5030889;28;19979;-73
2022/09/09 10:07:11;;;;;;;;;;;;;;;21.07;48.26;97712.31;5046978;28;19924;-73
2022/09/09 10:09:56;;;;;;;;;;;;;;;21.11;48.42;97713.91;5033514;28;19933;-73
2022/09/09 10:12:26;;;;;;;;;;;;;;;21.17;46.93;97708.81;5053026;28;19925;-73
2022/09/09 10:15:16;;;;;;;;;;;;;;;21.36;47.42;97714.09;5021221;28;19929;-73
2022/09/09 10:17:55;;;;;;;;;;;;;;;21.53;46.58;97711.81;5048767;28;20023;-74
2022/09/09 10:20:30;;;;;;;;;;;;;;;21.48;46.64;97698.34;5033508;28;20020;-76
2022/09/09 10:23:13;;;;;;;;;;;;;;;21.53;47.11;97695.22;5035018;28;19928;-73
2022/09/09 10:25:48;;;;;;;;;;;;;;;21.39;46.53;97698.69;5036431;28;19948;-74
2022/09/09 10:28:25;;;;;;;;;;;;;;;21.09;47.04;97694.19;4999681;28;19931;-74
2022/09/09 10:32:07;;;;;;;;;;;;;;;21.11;47.48;97691.03;5051816;28;19928;-75
2022/09/09 10:34:56;;;;;;;;;;;;;;;21.26;47.10;97701.00;5036559;28;19931;-74
2022/09/09 10:37:51;;;;;;;;;;;;;;;21.37;47.37;97695.53;4984699;28;20505;-74
2022/09/09 10:40:45;;;;;;;;;;;;;;;21.51;47.15;97687.28;5002390;28;19926;-74
2022/09/09 10:44:06;;;;;;;;;;;;;;;21.46;46.18;97679.38;5003977;28;19937;-74
2022/09/09 10:46:58;;;;;;;;;;;;;;;21.48;47.11;97676.25;5019167;28;19925;-74
2022/09/09 10:49:54;;;;;;;;;;;;;;;21.42;47.87;97678.59;5045693;28;19960;-74
2022/09/09 10:53:07;;;;;;;;;;;;;;;21.28;46.26;97679.28;5052639;28;19936;-74
2022/09/09 10:55:57;;;;;;;;;;;;;;;21.32;47.69;97674.59;5035737;28;19925;-74
2022/09/09 10:58:48;;;;;;;;;;;;;;;21.27;48.27;97674.94;5032943;28;19932;-74
2022/09/09 11:01:40;;;;;;;;;;;;;;;21.18;47.47;97671.72;5034649;28;20144;-74
2022/09/09 11:04:28;;;;;;;;;;;;;;;21.06;47.50;97669.31;5032969;28;20139;-74
2022/09/09 11:07:16;;;;;;;;;;;;;;;20.97;48.40;97671.59;5042521;28;19940;-74
2022/09/09 11:10:04;;;;;;;;;;;;;;;21.02;47.95;97674.00;5038942;28;19940;-75
2022/09/09 11:12:52;;;;;;;;;;;;;;;20.92;47.87;97679.06;5043539;28;19925;-74
2022/09/09 11:15:41;;;;;;;;;;;;;;;20.85;47.41;97679.03;5027019;28;20722;-74
2022/09/09 11:18:31;;;;;;;;;;;;;;;20.81;47.91;97682.94;5028420;28;19958;-74
2022/09/09 11:21:21;;;;;;;;;;;;;;;20.86;47.06;97686.13;5042770;28;19929;-74
2022/09/09 11:24:10;;;;;;;;;;;;;;;20.83;46.82;97688.91;5043417;28;19925;-74
2022/09/09 11:26:59;;;;;;;;;;;;;;;20.81;47.25;97675.47;5045813;28;19933;-74
2022/09/09 11:29:53;;;;;;;;;;;;;;;20.89;47.61;97666.06;5029549;28;19929;-74
2022/09/09 11:33:09;;;;;;;;;;;;;;;21.00;47.21;97670.84;5044923;28;19967;-76
2022/09/09 11:36:03;;;;;;;;;;;;;;;21.09;45.82;97661.03;5037489;28;19954;-74
2022/09/09 11:38:57;;;;;;;;;;;;;;;21.15;45.93;97661.47;5045359;28;20401;-74
2022/09/09 11:44:58;;;;;;;;;;;;;;;21.20;47.45;97663.88;5029006;28;19924;-75
2022/09/09 11:47:52;;;;;;;;;;;;;;;21.36;46.71;97664.38;5037541;28;19929;-74
2022/09/09 11:50:40;;;;;;;;;;;;;;;21.48;45.11;97665.19;5028823;28;19933;-79
2022/09/09 11:53:30;;;;;;;;;;;;;;;21.53;45.56;97662.06;5029110;28;20362;-75
2022/09/09 11:56:26;;;;;;;;;;;;;;;21.50;46.13;97663.59;5044068;28;20370;-74
2022/09/09 11:59:20;;;;;;;;;;;;;;;21.38;46.17;97667.50;5028001;28;19928;-74
2022/09/09 12:02:10;;;;;;;;;;;;;;;21.29;46.21;97658.75;5028911;28;19925;-74
2022/09/09 12:05:00;;;;;;;;;;;;;;;21.27;46.89;97663.88;5039268;28;19925;-74
2022/09/09 12:07:50;;;;;;;;;;;;;;;21.22;44.43;97663.47;5039009;28;20386;-74
2022/09/09 12:10:41;;;;;;;;;;;;;;;21.14;44.44;97668.16;5041041;28;19925;-74
2022/09/09 12:13:31;;;;;;;;;;;;;;;21.15;46.18;97664.22;5028199;28;19936;-74
2022/09/09 12:16:28;;;;;;;;;;;;;;;21.06;46.97;97661.03;5028729;28;19925;-75
2022/09/09 12:19:19;;;;;;;;;;;;;;;21.00;48.64;97659.81;5025033;28;19933;-75
2022/09/09 12:22:14;;;;;;;;;;;;;;;20.86;47.83;97668.78;5030376;28;19931;-73
2022/09/09 12:25:04;;;;;;;;;;;;;;;20.80;47.57;97665.59;5029051;28;19924;-72
2022/09/09 12:27:59;;;;;;;;;;;;;;;21.00;45.06;97644.03;5030969;28;19925;-72
2022/09/09 12:30:50;;;;;;;;;;;;;;;21.06;45.57;97639.72;5043120;28;20021;-72
2022/09/09 12:33:40;;;;;;;;;;;;;;;21.16;42.76;97643.72;5031499;28;19925;-72
2022/09/09 12:36:29;;;;;;;;;;;;;;;21.29;42.47;97635.84;5031310;28;19924;-72
2022/09/09 12:39:19;;;;;;;;;;;;;;;21.31;41.22;97633.53;5041095;28;20001;-71
2022/09/09 12:42:16;;;;;;;;;;;;;;;21.39;41.44;97627.63;5029204;28;19928;-70
2022/09/09 12:45:31;;;;;;;;;;;;;;;21.48;44.38;97634.78;5028114;28;19936;-71
2022/09/09 12:48:21;;;;;;;;;;;;;;;21.64;44.26;97626.94;5044324;28;19936;-70
2022/09/09 12:51:17;;;;;;;;;;;;;;;21.91;43.62;97619.88;5031878;28;19929;-70
2022/09/09 12:54:05;;;;;;;;;;;;;;;22.00;42.45;97616.72;5046925;28;19925;-70
2022/09/09 12:56:56;;;;;;;;;;;;;;;21.88;42.55;97619.84;5046551;28;19925;-70
2022/09/09 12:59:44;;;;;;;;;;;;;;;21.79;44.42;97620.25;5031542;28;19932;-70
2022/09/09 13:02:32;;;;;;;;;;;;;;;21.86;44.89;97628.56;5038006;28;19936;-71
2022/09/09 13:05:46;;;;;;;;;;;;;;;21.94;44.49;97649.53;5032255;28;20089;-71
2022/09/09 13:08:33;;;;;;;;;;;;;;;21.34;44.70;97669.47;5039759;28;19931;-70
2022/09/09 13:11:22;;;;;;;;;;;;;;;20.77;45.66;97666.34;5042772;28;19932;-70
2022/09/09 13:14:13;;;;;;;;;;;;;;;20.27;46.54;97665.97;5044164;28;19925;-73
2022/09/09 13:17:03;;;;;;;;;;;;;;;19.88;48.27;97666.38;5044672;28;20019;-73
2022/09/09 13:19:53;;;;;;;;;;;;;;;19.58;48.41;97671.94;5042201;28;20045;-73
2022/09/09 13:22:41;;;;;;;;;;;;;;;19.48;50.00;97674.56;5044346;28;20064;-72
2022/09/09 13:25:29;;;;;;;;;;;;;;;19.31;50.63;97671.22;5042366;28;19932;-72
2022/09/09 13:28:21;;;;;;;;;;;;;;;19.32;51.00;97656.28;5042962;28;19929;-73
2022/09/09 13:31:20;;;;;;;;;;;;;;;19.34;50.84;97653.97;5043051;28;19940;-72
2022/09/09 13:34:12;;;;;;;;;;;;;;;19.23;51.42;97644.78;5038760;28;19951;-72
2022/09/09 13:37:03;;;;;;;;;;;;;;;19.31;52.18;97648.41;5029717;28;19924;-72
2022/09/09 13:39:53;;;;;;;;;;;;;;;19.46;51.85;97635.59;5027699;28;19952;-73
2022/09/09 13:42:42;;;;;;;;;;;;;;;19.56;51.24;97627.44;5044174;28;19928;-72
2022/09/09 13:45:30;;;;;;;;;;;;;;;19.60;51.84;97633.81;5044171;28;19926;-72
2022/09/09 13:48:19;;;;;;;;;;;;;;;19.57;51.66;97633.75;5042826;28;19947;-69
2022/09/09 13:51:26;;;;;;;;;;;;;;;19.52;51.83;97636.84;5023379;28;20069;-70
2022/09/09 13:54:17;;;;;;;;;;;;;;;19.75;51.93;97631.97;5042997;28;19925;-72
2022/09/09 13:57:15;;;;;;;;;;;;;;;19.84;51.69;97632.47;5029635;28;19933;-72